This is the latest recevied weather packets stored in our database for station/object W0CHP-13. If no packets are shown the sender has not sent any weather packets the latest 10 day(s).
| Time | Temp. | Humidity | Pressure | Rain* | Wind** | Luminosity | Snow |
|---|---|---|---|---|---|---|---|
| 1777762995 | 17.78° C | 27% | 1011.1 hPa | 0 mm | - | 102 W/m² | - |
| 1777762397 | 17.78° C | 25% | 1011.1 hPa | 0 mm | - | 75 W/m² | - |
| 1777761795 | 18.33° C | 27% | 1011.3 hPa | 0 mm | - | 188 W/m² | - |
| 1777761197 | 18.33° C | 26% | 1011.3 hPa | 0 mm | - | 241 W/m² | - |
| 1777760595 | 18.33° C | 26% | 1011.5 hPa | 0 mm | - | 316 W/m² | - |
| 1777759997 | 18.33° C | 26% | 1011.5 hPa | 0 mm | - | 339 W/m² | - |
| 1777759395 | 17.78° C | 27% | 1011.5 hPa | 0 mm | - | 401 W/m² | - |
| 1777758798 | 17.78° C | 26% | 1011.6 hPa | 0 mm | - | 127 W/m² | - |
| 1777758196 | 18.33° C | 26% | 1012 hPa | 0 mm | - | 267 W/m² | - |
| 1777757598 | 18.33° C | 27% | 1012 hPa | 0 mm | - | 488 W/m² | - |
| 1777756996 | 18.33° C | 24% | 1012.3 hPa | 0 mm | - | 223 W/m² | - |
| 1777756398 | 18.33° C | 25% | 1012.3 hPa | 0 mm | - | 358 W/m² | - |
| 1777755796 | 18.33° C | 26% | 1012.5 hPa | 0 mm | - | 528 W/m² | - |
| 1777755198 | 18.89° C | 24% | 1012.7 hPa | 0 mm | - | 139 W/m² | - |
| 1777754596 | 19.44° C | 25% | 1012.9 hPa | 0 mm | - | 600 W/m² | - |
| 1777753998 | 18.89° C | 24% | 1013 hPa | 0 mm | - | 634 W/m² | - |
| 1777753396 | 18.89° C | 23% | 1013 hPa | 0 mm | - | 655 W/m² | - |
| 1777752798 | 18.33° C | 25% | 1013.2 hPa | 0 mm | - | 718 W/m² | - |
| 1777752196 | 18.89° C | 26% | 1013.4 hPa | 0 mm | - | 626 W/m² | - |
| 1777751598 | 18.89° C | 26% | 1013.4 hPa | 0 mm | - | 684 W/m² | - |
| 1777750996 | 18.89° C | 27% | 1013.9 hPa | 0 mm | - | 697 W/m² | - |
| 1777750398 | 18.33° C | 26% | 1013.9 hPa | 0 mm | - | 712 W/m² | - |
| 1777749797 | 18.89° C | 25% | 1014.1 hPa | 0 mm | - | 725 W/m² | - |
| 1777749194 | 19.44° C | 25% | 1014.4 hPa | 0 mm | - | 743 W/m² | - |
| 1777748597 | 18.89° C | 27% | 1014.4 hPa | 0 mm | - | 773 W/m² | - |
* Rain latest hour (hover to see other rain measurements)
** Current wind speed in m/s (hover to see current wind gust speed)